Clyde Hill, Washington
Current Conditions -  °F | °C
As of 8:53 AM on Wednesday 22 Oct 2014 (Local Time) from KBFI Reporting Station
Light Rain Light Rain  
Wind Chill: 59°   Ceiling: 2600
Heat Index: 59°   Visibility: 7mi
Dew Point: 54°   Wind: 9mph
Humidity: 83%   Direction: 150°SSE
Pressure: 29.71"   Gusts: NA
Location:  47.6186°N, 122.204°W
Report Text: KBFI 221553Z 15008KT 7SM -RA SCT019 BKN026 OVC038 15/12 A2971 RMK AO2 RAB16 SLP059 P0002 T01500122
Loading
Personal Weather Stations






























Interactive Weather Map
Tropical Storm Tracking
New forecast layout! Learn more

10-Day Weather Forecast

Advertisements
Track Severe Weather on mobile